createdAt,value
2017-10-14T00:00:32.422Z,16.63
2017-10-14T00:03:01.279Z,10.77
2017-10-14T00:05:30.175Z,6.80
2017-10-14T00:07:59.028Z,29.07
2017-10-14T00:10:27.925Z,13.83
2017-10-14T00:12:56.819Z,15.97
2017-10-14T00:15:25.674Z,5.90
2017-10-14T00:17:54.545Z,6.50
2017-10-14T00:20:23.400Z,6.77
2017-10-14T00:22:52.302Z,5.10
2017-10-14T00:25:21.167Z,6.83
2017-10-14T00:27:50.020Z,9.10
2017-10-14T00:30:18.884Z,6.47
2017-10-14T00:32:47.734Z,6.97
2017-10-14T00:35:16.621Z,6.53
2017-10-14T00:37:45.479Z,6.00
2017-10-14T00:40:14.515Z,7.50
2017-10-14T00:42:43.374Z,13.93
2017-10-14T00:45:12.243Z,7.90
2017-10-14T00:47:41.117Z,8.63
2017-10-14T00:50:09.965Z,5.27
2017-10-14T00:52:38.847Z,6.60
2017-10-14T00:55:07.720Z,6.23
2017-10-14T00:57:36.602Z,16.93
2017-10-14T01:00:05.482Z,17.53
2017-10-14T01:02:34.373Z,9.07
2017-10-14T01:05:03.229Z,13.00
2017-10-14T01:07:32.115Z,4.87
2017-10-14T01:10:00.966Z,8.60
2017-10-14T01:12:29.867Z,4.90
2017-10-14T01:14:58.759Z,6.30
2017-10-14T01:17:27.630Z,11.63
2017-10-14T01:19:56.554Z,10.33
2017-10-14T01:22:25.445Z,11.27
2017-10-14T01:24:54.325Z,4.83
2017-10-14T01:27:23.181Z,6.70
2017-10-14T01:29:52.024Z,8.83
2017-10-14T01:32:20.887Z,11.63
2017-10-14T01:34:49.768Z,8.70
2017-10-14T01:37:18.648Z,15.97
2017-10-14T01:39:47.500Z,14.73
2017-10-14T01:42:16.410Z,8.40
2017-10-14T01:44:45.269Z,11.93
2017-10-14T01:47:14.122Z,6.17
2017-10-14T01:49:42.992Z,12.97
2017-10-14T01:52:11.847Z,8.47
2017-10-14T01:54:40.712Z,5.20
2017-10-14T01:57:09.563Z,11.13
2017-10-14T01:59:38.492Z,8.37
2017-10-14T02:02:07.339Z,10.33
2017-10-14T02:04:36.223Z,6.70
2017-10-14T02:07:05.103Z,7.40
2017-10-14T02:09:33.968Z,9.43
2017-10-14T02:12:02.862Z,24.53
2017-10-14T02:14:31.727Z,4.90
2017-10-14T02:17:00.705Z,13.93
2017-10-14T02:19:29.569Z,9.73
2017-10-14T02:21:58.419Z,5.47
2017-10-14T02:24:27.299Z,5.73
2017-10-14T02:26:56.149Z,8.30
2017-10-14T02:29:25.051Z,6.87
2017-10-14T02:31:53.910Z,22.97
2017-10-14T02:34:22.782Z,7.80
2017-10-14T02:36:51.639Z,8.73
2017-10-14T02:39:20.510Z,9.30
2017-10-14T02:41:49.375Z,6.80
2017-10-14T02:44:18.262Z,10.20
2017-10-14T02:46:47.123Z,8.43
2017-10-14T02:49:15.966Z,9.30
2017-10-14T02:51:44.844Z,7.47
2017-10-14T02:54:13.704Z,6.60
2017-10-14T02:56:42.566Z,10.40
2017-10-14T02:59:11.414Z,11.10
2017-10-14T03:01:40.395Z,5.93
2017-10-14T03:04:09.255Z,5.83
2017-10-14T03:06:38.123Z,7.70
2017-10-14T03:09:07.002Z,12.83
2017-10-14T03:11:35.860Z,5.17
2017-10-14T03:14:04.783Z,5.83
2017-10-14T03:16:33.639Z,6.57
2017-10-14T03:19:02.637Z,8.70
2017-10-14T03:21:31.480Z,6.77
2017-10-14T03:24:00.352Z,6.20
2017-10-14T03:26:29.242Z,8.47
2017-10-14T03:28:58.091Z,9.70
2017-10-14T03:31:26.971Z,7.33
2017-10-14T03:33:55.825Z,5.87
2017-10-14T03:36:24.738Z,10.93
2017-10-14T03:38:53.593Z,5.90
2017-10-14T03:41:22.457Z,7.77
2017-10-14T03:43:51.330Z,11.53
2017-10-14T03:46:20.171Z,6.70
2017-10-14T03:48:49.044Z,7.67
2017-10-14T03:51:17.896Z,10.07
2017-10-14T03:53:46.767Z,6.70
2017-10-14T03:56:15.624Z,7.00
2017-10-14T03:58:44.495Z,7.00
2017-10-14T04:01:13.370Z,7.80
2017-10-14T04:03:42.270Z,9.30
2017-10-14T04:06:11.175Z,7.30
2017-10-14T04:08:40.037Z,9.17
2017-10-14T04:11:08.919Z,5.80
2017-10-14T04:13:37.763Z,7.80
2017-10-14T04:16:06.650Z,9.37
2017-10-14T04:18:35.512Z,5.50
2017-10-14T04:21:04.371Z,4.83
2017-10-14T04:23:33.269Z,8.93
2017-10-14T04:26:02.118Z,4.67
2017-10-14T04:28:30.983Z,8.53
2017-10-14T04:30:59.839Z,14.23
2017-10-14T04:33:28.757Z,11.27
2017-10-14T04:35:57.606Z,16.33
2017-10-14T04:38:26.636Z,8.83
2017-10-14T04:40:55.488Z,7.80
2017-10-14T04:43:24.343Z,6.10
2017-10-14T04:45:53.211Z,12.70
2017-10-14T04:48:22.050Z,8.00
2017-10-14T04:50:50.921Z,6.47
2017-10-14T04:53:19.823Z,5.67
2017-10-14T04:55:48.716Z,7.63
2017-10-14T04:58:17.651Z,13.80
2017-10-14T05:00:46.505Z,7.60
2017-10-14T05:03:15.370Z,16.10
2017-10-14T05:05:44.239Z,9.47
2017-10-14T05:08:13.108Z,13.53
2017-10-14T05:10:41.961Z,16.50
2017-10-14T05:13:10.856Z,15.20
2017-10-14T05:15:39.714Z,17.80
2017-10-14T05:18:08.586Z,6.80
2017-10-14T05:20:37.474Z,10.50
2017-10-14T05:23:06.362Z,6.07
2017-10-14T05:25:35.234Z,8.03
2017-10-14T05:28:04.091Z,6.33
2017-10-14T05:30:32.992Z,7.70
2017-10-14T05:33:01.855Z,11.50
2017-10-14T05:35:30.710Z,6.07
2017-10-14T05:37:59.575Z,10.90
2017-10-14T05:40:28.427Z,8.03
2017-10-14T05:42:57.309Z,12.93
2017-10-14T05:45:26.169Z,8.97
2017-10-14T05:47:55.062Z,10.67
2017-10-14T05:50:24.302Z,11.67
2017-10-14T05:52:53.158Z,9.07
2017-10-14T05:55:22.023Z,9.53
2017-10-14T05:57:50.874Z,7.87
2017-10-14T06:00:19.743Z,12.93
2017-10-14T06:02:48.610Z,15.23
2017-10-14T06:05:17.509Z,8.23
2017-10-14T06:07:46.354Z,7.83
2017-10-14T06:10:15.189Z,9.83
2017-10-14T06:12:44.059Z,8.90
2017-10-14T06:15:12.915Z,7.03
2017-10-14T06:17:41.779Z,12.10
2017-10-14T06:20:10.640Z,16.60
2017-10-14T06:22:39.544Z,9.40
2017-10-14T06:25:08.407Z,10.50
2017-10-14T06:27:37.269Z,23.90
2017-10-14T06:30:06.141Z,10.87
2017-10-14T06:32:34.995Z,9.00
2017-10-14T06:35:03.866Z,9.03
2017-10-14T06:37:32.715Z,9.23
2017-10-14T06:40:01.592Z,8.83
2017-10-14T06:42:30.490Z,11.00
2017-10-14T06:44:59.447Z,12.03
2017-10-14T06:47:28.322Z,16.70
2017-10-14T06:49:57.185Z,17.03
2017-10-14T06:52:26.067Z,5.43
2017-10-14T06:54:54.918Z,9.90
2017-10-14T06:57:23.792Z,12.57
2017-10-14T06:59:52.655Z,9.90
2017-10-14T07:02:21.555Z,13.03
2017-10-14T07:04:50.404Z,8.83
2017-10-14T07:07:19.254Z,7.30
2017-10-14T07:09:48.128Z,16.33
2017-10-14T07:12:17.003Z,7.40
2017-10-14T07:14:45.874Z,4.43
2017-10-14T07:17:14.731Z,5.25
2017-10-14T07:19:43.610Z,11.17
2017-10-14T07:22:12.495Z,9.50
2017-10-14T07:24:41.392Z,7.17
2017-10-14T07:27:10.318Z,6.73
2017-10-14T07:29:39.178Z,5.40
2017-10-14T07:32:08.036Z,9.57
2017-10-14T07:34:36.886Z,8.00
2017-10-14T07:37:05.762Z,11.53
2017-10-14T07:39:34.637Z,5.67
2017-10-14T07:42:03.528Z,10.20
2017-10-14T07:44:32.383Z,5.63
2017-10-14T07:47:01.232Z,13.80
2017-10-14T07:49:30.181Z,10.83
2017-10-14T07:51:59.099Z,11.40
2017-10-14T07:54:27.967Z,10.47
2017-10-14T07:56:56.830Z,7.50
2017-10-14T07:59:25.717Z,12.00
2017-10-14T08:01:54.633Z,8.80
2017-10-14T08:04:23.494Z,8.80
2017-10-14T08:06:52.351Z,7.03
2017-10-14T08:09:21.423Z,8.60
2017-10-14T08:11:50.324Z,9.00
2017-10-14T08:14:19.185Z,9.83
2017-10-14T08:16:48.169Z,10.13
2017-10-14T08:19:17.027Z,8.20
2017-10-14T08:21:45.921Z,8.40
2017-10-14T08:24:14.771Z,8.83
2017-10-14T08:26:43.634Z,7.07
2017-10-14T08:29:12.476Z,9.40
2017-10-14T08:31:41.347Z,6.70
2017-10-14T08:34:11.126Z,6.57
2017-10-14T08:36:40.068Z,5.73
2017-10-14T08:39:08.939Z,9.20
2017-10-14T08:41:37.787Z,9.40
2017-10-14T08:44:06.669Z,9.63
2017-10-14T08:46:35.530Z,8.77
2017-10-14T08:49:04.397Z,7.73
2017-10-14T08:51:33.243Z,6.83
2017-10-14T08:54:02.262Z,7.00
2017-10-14T08:56:31.120Z,14.47
2017-10-14T08:58:59.976Z,15.33
2017-10-14T09:01:28.854Z,6.27
2017-10-14T09:03:57.698Z,8.77
2017-10-14T09:06:26.636Z,6.80
2017-10-14T09:08:55.503Z,7.80
2017-10-14T09:11:24.347Z,7.10
2017-10-14T09:13:53.215Z,6.40
2017-10-14T09:16:22.090Z,5.50
2017-10-14T09:18:51.132Z,7.03
2017-10-14T09:21:19.995Z,4.70
2017-10-14T09:23:48.846Z,6.20
2017-10-14T09:26:17.729Z,9.30
2017-10-14T09:28:46.589Z,6.20
2017-10-14T09:31:15.479Z,4.60
2017-10-14T09:33:44.338Z,4.47
2017-10-14T09:36:13.237Z,6.43
2017-10-14T09:38:42.115Z,6.20
2017-10-14T09:41:10.988Z,5.37
2017-10-14T09:43:39.866Z,4.33
2017-10-14T09:46:08.766Z,12.13
2017-10-14T09:48:37.667Z,7.10
2017-10-14T09:51:06.546Z,6.43
2017-10-14T09:53:35.429Z,14.13
2017-10-14T09:56:04.292Z,7.00
2017-10-14T09:58:33.216Z,11.37
2017-10-14T10:01:02.062Z,10.00
2017-10-14T10:03:30.924Z,5.10
2017-10-14T10:05:59.791Z,5.07
2017-10-14T10:08:28.653Z,7.60
2017-10-14T10:10:57.555Z,4.67
2017-10-14T10:13:26.410Z,6.30
2017-10-14T10:15:55.305Z,5.80
2017-10-14T10:18:24.183Z,10.13
2017-10-14T10:20:53.047Z,5.23
2017-10-14T10:23:21.942Z,6.67
2017-10-14T10:25:50.799Z,6.10
2017-10-14T10:28:19.685Z,5.33
2017-10-14T10:30:48.539Z,18.33
2017-10-14T10:33:17.428Z,8.02
2017-10-14T10:35:46.311Z,4.70
2017-10-14T10:38:15.227Z,6.87
2017-10-14T10:40:44.075Z,6.30
2017-10-14T10:43:12.925Z,5.70
2017-10-14T10:45:41.798Z,5.13
2017-10-14T10:48:10.667Z,4.47
2017-10-14T10:50:39.538Z,7.23
2017-10-14T10:53:08.410Z,4.70
2017-10-14T10:55:37.282Z,4.20
2017-10-14T10:58:06.182Z,5.63
2017-10-14T11:00:35.022Z,4.53
2017-10-14T11:03:03.893Z,4.20
2017-10-14T11:05:32.741Z,6.07
2017-10-14T11:08:01.630Z,4.60
2017-10-14T11:10:30.484Z,10.93
2017-10-14T11:12:59.360Z,5.78
2017-10-14T11:15:28.216Z,4.47
2017-10-14T11:17:57.081Z,5.87
2017-10-14T11:20:25.945Z,12.57
2017-10-14T11:22:54.805Z,9.95
2017-10-14T11:25:23.767Z,5.10
2017-10-14T11:27:52.610Z,7.05
2017-10-14T11:30:21.735Z,9.53
2017-10-14T11:32:50.598Z,8.80
2017-10-14T11:35:19.436Z,8.27
2017-10-14T11:37:48.315Z,5.70
2017-10-14T11:40:17.171Z,3.77
2017-10-14T11:42:46.046Z,3.97
2017-10-14T11:45:14.939Z,6.30
2017-10-14T11:47:43.851Z,5.83
2017-10-14T11:50:12.705Z,4.17
2017-10-14T11:52:41.562Z,16.63
2017-10-14T11:55:10.438Z,4.20
2017-10-14T11:57:39.294Z,12.97
2017-10-14T12:00:08.153Z,4.40
2017-10-14T12:02:37.034Z,6.00
2017-10-14T12:05:05.907Z,4.83
2017-10-14T12:07:34.797Z,3.50
2017-10-14T12:10:03.654Z,3.50
2017-10-14T12:12:32.515Z,4.93
2017-10-14T12:15:01.366Z,3.13
2017-10-14T12:17:30.228Z,4.40
2017-10-14T12:19:59.087Z,6.00
2017-10-14T12:22:27.970Z,5.20
2017-10-14T12:24:56.845Z,7.67
2017-10-14T12:27:25.711Z,5.30
2017-10-14T12:29:54.590Z,4.60
2017-10-14T12:32:23.462Z,6.07
2017-10-14T12:34:52.349Z,2.57
2017-10-14T12:37:21.205Z,3.73
2017-10-14T12:39:50.086Z,3.10
2017-10-14T12:42:18.938Z,2.50
2017-10-14T12:44:47.783Z,9.53
2017-10-14T12:47:16.646Z,3.90
2017-10-14T12:49:45.502Z,3.23
2017-10-14T12:52:14.375Z,2.97
2017-10-14T12:54:43.223Z,2.53
2017-10-14T12:57:12.127Z,4.23
2017-10-14T12:59:40.966Z,6.90
2017-10-14T13:02:09.821Z,2.50
2017-10-14T13:04:38.711Z,3.13
2017-10-14T13:07:07.558Z,5.70
2017-10-14T13:09:36.428Z,3.47
2017-10-14T13:12:05.282Z,3.00
2017-10-14T13:14:34.160Z,2.60
2017-10-14T13:17:03.059Z,2.30
2017-10-14T13:19:31.913Z,2.93
2017-10-14T13:22:00.779Z,11.70
2017-10-14T13:24:29.649Z,3.37
2017-10-14T13:26:58.526Z,3.17
2017-10-14T13:29:27.405Z,12.43
2017-10-14T13:31:56.292Z,3.07
2017-10-14T13:34:25.199Z,7.63
2017-10-14T13:36:54.195Z,6.40
2017-10-14T13:39:23.067Z,2.83
2017-10-14T13:41:51.934Z,18.47
2017-10-14T13:44:20.874Z,11.43
2017-10-14T13:46:49.743Z,17.13
2017-10-14T13:49:18.632Z,5.97
2017-10-14T13:51:47.506Z,3.83
2017-10-14T13:54:16.366Z,5.23
2017-10-14T13:56:45.235Z,6.03
2017-10-14T13:59:14.079Z,10.07
2017-10-14T14:01:43.273Z,2.90
2017-10-14T14:04:12.109Z,4.07
2017-10-14T14:06:40.998Z,5.43
2017-10-14T14:09:09.851Z,3.43
2017-10-14T14:11:38.739Z,5.10
2017-10-14T14:14:07.653Z,3.53
2017-10-14T14:16:36.494Z,7.20
2017-10-14T14:19:05.382Z,4.27
2017-10-14T14:21:34.241Z,8.43
2017-10-14T14:24:03.283Z,7.80
2017-10-14T14:26:32.168Z,3.67
2017-10-14T14:29:01.011Z,3.13
2017-10-14T14:31:29.875Z,3.93
2017-10-14T14:33:58.748Z,3.70
2017-10-14T14:36:27.712Z,4.77
2017-10-14T14:38:56.562Z,3.40
2017-10-14T14:41:25.447Z,5.90
2017-10-14T14:43:54.318Z,3.97
2017-10-14T14:46:23.174Z,7.03
2017-10-14T14:48:52.046Z,9.33
2017-10-14T14:51:20.885Z,5.80
2017-10-14T14:53:49.769Z,5.70
2017-10-14T14:56:18.614Z,6.47
2017-10-14T14:58:47.616Z,5.30
2017-10-14T15:01:16.485Z,4.40
2017-10-14T15:03:45.353Z,3.73
2017-10-14T15:06:14.212Z,5.07
2017-10-14T15:08:43.078Z,5.50
2017-10-14T15:11:11.941Z,5.90
2017-10-14T15:13:40.799Z,11.93
2017-10-14T15:16:09.694Z,4.23
2017-10-14T15:18:38.552Z,7.80
2017-10-14T15:21:07.439Z,5.70
2017-10-14T15:23:36.302Z,4.33
2017-10-14T15:26:05.158Z,3.73
2017-10-14T15:28:34.042Z,7.77
2017-10-14T15:31:02.916Z,7.70
2017-10-14T15:33:31.854Z,13.63
2017-10-14T15:36:00.740Z,5.60
2017-10-14T15:38:29.594Z,3.93
2017-10-14T15:40:58.488Z,4.27
2017-10-14T15:43:27.334Z,5.57
2017-10-14T15:45:56.206Z,10.10
2017-10-14T15:48:25.087Z,8.63
2017-10-14T15:50:53.987Z,9.50
2017-10-14T15:53:22.853Z,10.10
2017-10-14T15:55:51.721Z,6.43
2017-10-14T15:58:20.597Z,8.90
2017-10-14T16:00:49.454Z,8.33
2017-10-14T16:03:18.356Z,8.52
2017-10-14T16:05:47.218Z,9.33
2017-10-14T16:08:16.125Z,11.53
2017-10-14T16:10:44.971Z,8.40
2017-10-14T16:13:13.844Z,7.23
2017-10-14T16:15:42.727Z,14.13
2017-10-14T16:18:11.591Z,9.93
2017-10-14T16:20:40.491Z,11.07
2017-10-14T16:23:09.367Z,26.53
2017-10-14T16:25:38.261Z,13.43
2017-10-14T16:28:07.134Z,10.33
2017-10-14T16:30:35.995Z,9.40
2017-10-14T16:33:04.875Z,11.57
2017-10-14T16:35:33.740Z,21.73
2017-10-14T16:38:02.611Z,13.27
2017-10-14T16:40:31.495Z,14.37
2017-10-14T16:43:00.374Z,12.33
2017-10-14T16:45:29.263Z,13.43
2017-10-14T16:47:58.111Z,12.23
2017-10-14T16:50:26.992Z,15.30
2017-10-14T16:52:55.856Z,11.83
2017-10-14T16:55:24.738Z,18.40
2017-10-14T16:57:53.610Z,16.10
2017-10-14T17:00:22.510Z,14.97
2017-10-14T17:02:51.367Z,13.23
2017-10-14T17:05:20.241Z,19.83
2017-10-14T17:07:49.153Z,22.83
2017-10-14T17:10:18.042Z,19.40
2017-10-14T17:12:46.931Z,23.00
2017-10-14T17:15:15.795Z,16.13
2017-10-14T17:17:44.751Z,15.27
2017-10-14T17:20:13.611Z,27.43
2017-10-14T17:22:42.467Z,16.23
2017-10-14T17:25:11.340Z,21.60
2017-10-14T17:27:40.214Z,12.73
2017-10-14T17:30:09.083Z,14.20
2017-10-14T17:32:37.966Z,15.23
2017-10-14T17:35:06.843Z,13.93
2017-10-14T17:37:35.739Z,16.70
2017-10-14T17:40:04.642Z,16.90
2017-10-14T17:42:33.508Z,30.20
2017-10-14T17:45:02.419Z,21.63
2017-10-14T17:47:31.290Z,18.70
2017-10-14T17:50:00.641Z,19.90
2017-10-14T17:52:29.556Z,18.20
2017-10-14T17:54:58.568Z,15.20
2017-10-14T17:57:27.453Z,18.70
2017-10-14T17:59:56.335Z,18.23
2017-10-14T18:02:25.766Z,19.20
2017-10-14T18:04:54.620Z,21.30
2017-10-14T18:07:23.507Z,16.80
2017-10-14T18:09:52.385Z,18.60
2017-10-14T18:12:21.240Z,20.80
2017-10-14T18:14:50.587Z,26.27
2017-10-14T18:17:19.462Z,21.17
2017-10-14T18:19:48.370Z,25.13
2017-10-14T18:22:17.240Z,33.20
2017-10-14T18:24:46.095Z,29.20
2017-10-14T18:27:15.002Z,22.40
2017-10-14T18:29:43.868Z,21.07
2017-10-14T18:32:12.758Z,23.93
2017-10-14T18:34:41.636Z,20.20
2017-10-14T18:37:10.535Z,18.97
2017-10-14T18:39:39.431Z,18.97
2017-10-14T18:42:08.307Z,37.40
2017-10-14T18:44:37.194Z,34.53
2017-10-14T18:47:06.062Z,33.67
2017-10-14T18:49:34.947Z,24.23
2017-10-14T18:52:03.807Z,20.57
2017-10-14T18:54:32.740Z,24.53
2017-10-14T18:57:01.602Z,23.20
2017-10-14T18:59:30.479Z,36.73
2017-10-14T19:01:59.347Z,28.03
2017-10-14T19:04:28.208Z,26.23
2017-10-14T19:06:57.074Z,26.60
2017-10-14T19:09:25.962Z,25.33
2017-10-14T19:11:54.876Z,24.87
2017-10-14T19:14:23.765Z,26.48
2017-10-14T19:16:52.638Z,25.03
2017-10-14T19:19:21.570Z,28.50
2017-10-14T19:21:50.434Z,25.43
2017-10-14T19:24:19.357Z,26.80
2017-10-14T19:26:48.242Z,38.40
2017-10-14T19:29:17.128Z,24.77
2017-10-14T19:31:45.994Z,23.70
2017-10-14T19:34:14.855Z,26.30
2017-10-14T19:36:43.801Z,28.13
2017-10-14T19:39:12.671Z,22.30
2017-10-14T19:41:41.578Z,22.73
2017-10-14T19:44:10.446Z,23.73
2017-10-14T19:46:39.338Z,28.23
2017-10-14T19:51:43.792Z,22.20
2017-10-14T19:54:12.660Z,30.40
2017-10-14T19:56:41.574Z,17.03
2017-10-14T19:59:10.478Z,20.27
2017-10-14T20:01:39.345Z,20.13
2017-10-14T20:04:08.249Z,29.83
2017-10-14T20:06:37.130Z,24.50
2017-10-14T20:09:06.098Z,24.80
2017-10-14T20:11:34.988Z,26.90
2017-10-14T20:14:03.877Z,25.30
2017-10-14T20:16:32.765Z,16.83
2017-10-14T20:19:01.653Z,26.47
2017-10-14T20:21:30.531Z,22.30
2017-10-14T20:23:59.414Z,23.00
2017-10-14T20:26:28.323Z,24.83
2017-10-14T20:28:57.203Z,27.00
2017-10-14T20:31:26.075Z,18.60
2017-10-14T20:33:54.954Z,22.73
2017-10-14T20:36:23.810Z,29.13
2017-10-14T20:38:52.702Z,32.10
2017-10-14T20:41:21.588Z,27.03
2017-10-14T20:43:50.480Z,28.63
2017-10-14T20:46:19.366Z,26.17
2017-10-14T20:48:48.235Z,29.27
2017-10-14T20:51:17.130Z,27.10
2017-10-14T20:53:45.987Z,26.63
2017-10-14T20:56:14.855Z,24.83
2017-10-14T20:58:43.750Z,26.23
2017-10-14T21:01:12.679Z,30.40
2017-10-14T21:03:41.596Z,28.87
2017-10-14T21:06:10.507Z,34.80
2017-10-14T21:08:39.398Z,20.63
2017-10-14T21:11:08.284Z,24.90
2017-10-14T21:13:37.156Z,28.63
2017-10-14T21:16:06.031Z,21.80
2017-10-14T21:18:34.913Z,18.43
2017-10-14T21:21:03.793Z,31.53
2017-10-14T21:23:32.642Z,18.60
2017-10-14T21:26:01.513Z,25.87
2017-10-14T21:28:30.393Z,18.60
2017-10-14T21:30:59.279Z,23.50
2017-10-14T21:33:28.166Z,20.70
2017-10-14T21:35:57.035Z,24.97
2017-10-14T21:38:25.929Z,28.97
2017-10-14T21:40:54.803Z,25.60
2017-10-14T21:43:23.721Z,17.60
2017-10-14T21:45:52.597Z,22.37
2017-10-14T21:48:21.561Z,23.70
2017-10-14T21:50:50.478Z,26.03
2017-10-14T21:53:19.379Z,17.93
2017-10-14T21:55:48.246Z,22.80
2017-10-14T21:58:17.134Z,17.90
2017-10-14T22:00:46.023Z,20.83
2017-10-14T22:03:14.899Z,31.93
2017-10-14T22:05:43.763Z,27.63
2017-10-14T22:08:12.671Z,19.47
2017-10-14T22:10:41.519Z,19.90
2017-10-14T22:13:10.428Z,21.23
2017-10-14T22:15:39.311Z,19.80
2017-10-14T22:18:08.621Z,30.63
2017-10-14T22:20:37.511Z,20.90
2017-10-14T22:23:06.378Z,22.33
2017-10-14T22:25:35.514Z,24.33
2017-10-14T22:28:05.254Z,18.07
2017-10-14T22:30:34.148Z,24.80
2017-10-14T22:33:03.046Z,23.60
2017-10-14T22:35:31.915Z,17.90
2017-10-14T22:38:00.808Z,17.20
2017-10-14T22:40:29.654Z,33.43
2017-10-14T22:42:58.612Z,17.87
2017-10-14T22:45:27.469Z,25.73
2017-10-14T22:47:56.328Z,23.80
2017-10-14T22:50:25.216Z,18.37
2017-10-14T22:52:54.073Z,14.27
2017-10-14T22:55:22.947Z,30.80
2017-10-14T22:57:51.872Z,20.20
2017-10-14T23:00:20.828Z,26.87
2017-10-14T23:02:49.700Z,18.67
2017-10-14T23:05:18.606Z,21.87
2017-10-14T23:07:47.496Z,29.60
2017-10-14T23:10:16.370Z,28.67
2017-10-14T23:12:45.262Z,27.77
2017-10-14T23:15:14.136Z,22.53
2017-10-14T23:17:43.023Z,15.53
2017-10-14T23:20:11.894Z,28.00
2017-10-14T23:22:40.742Z,15.63
2017-10-14T23:25:09.623Z,21.17
2017-10-14T23:27:38.470Z,18.07
2017-10-14T23:30:07.363Z,14.50
2017-10-14T23:32:36.222Z,31.13
2017-10-14T23:35:05.095Z,25.03
2017-10-14T23:37:33.959Z,21.20
2017-10-14T23:40:02.884Z,28.03
2017-10-14T23:42:31.753Z,26.03
2017-10-14T23:45:00.607Z,19.13
2017-10-14T23:47:29.475Z,14.83
2017-10-14T23:49:58.326Z,20.87
2017-10-14T23:52:27.230Z,22.43
2017-10-14T23:54:56.131Z,19.90
2017-10-14T23:57:25.037Z,14.83
2017-10-14T23:59:53.977Z,18.70
